createdAt,value
2023-02-23T00:02:46.425Z,6.95
2023-02-23T00:12:59.108Z,7.03
2023-02-23T00:23:00.784Z,6.89
2023-02-23T00:33:02.709Z,6.90
2023-02-23T00:43:04.683Z,6.93
2023-02-23T00:53:11.457Z,6.77
2023-02-23T01:03:14.027Z,6.71
2023-02-23T01:13:18.291Z,6.63
2023-02-23T01:23:26.967Z,6.67
2023-02-23T01:33:32.944Z,6.53
2023-02-23T01:43:35.491Z,6.64
2023-02-23T01:53:44.981Z,6.77
2023-02-23T02:03:58.821Z,6.65
2023-02-23T02:14:28.072Z,6.71
2023-02-23T02:24:58.520Z,6.75
2023-02-23T02:35:51.816Z,6.79
2023-02-23T02:46:15.815Z,6.80
2023-02-23T02:56:22.298Z,6.67
2023-02-23T03:07:05.903Z,6.57
2023-02-23T03:17:43.440Z,6.50
2023-02-23T03:28:30.667Z,6.38
2023-02-23T03:39:04.368Z,6.40
2023-02-23T03:49:28.991Z,6.32
2023-02-23T03:59:57.510Z,6.23
2023-02-23T04:10:23.785Z,6.23
2023-02-23T04:20:29.011Z,6.13
2023-02-23T04:30:33.400Z,6.09
2023-02-23T04:40:35.813Z,6.11
2023-02-23T04:50:37.752Z,6.13
2023-02-23T05:00:41.056Z,6.06
2023-02-23T05:10:56.124Z,6.04
2023-02-23T05:21:08.959Z,6.00
2023-02-23T05:31:12.184Z,5.94
2023-02-23T05:41:23.313Z,5.94
2023-02-23T05:51:25.373Z,5.92
2023-02-23T06:01:28.210Z,6.13
2023-02-23T06:12:07.981Z,6.29
2023-02-23T06:22:17.897Z,6.06
2023-02-23T06:32:27.380Z,6.21
2023-02-23T06:42:36.085Z,6.52
2023-02-23T06:52:49.671Z,6.60
2023-02-23T07:02:53.748Z,6.76
2023-02-23T07:12:55.909Z,7.20
2023-02-23T07:23:07.152Z,7.26
2023-02-23T07:33:09.025Z,7.29
2023-02-23T07:43:13.886Z,7.47
2023-02-23T07:53:15.843Z,7.56
2023-02-23T08:03:25.369Z,7.69
2023-02-23T08:13:43.935Z,8.12
2023-02-23T08:23:50.733Z,8.18
2023-02-23T08:33:54.949Z,8.59
2023-02-23T08:44:00.611Z,9.18
2023-02-23T08:54:04.371Z,9.09
2023-02-23T09:04:07.417Z,9.00
2023-02-23T09:14:10.232Z,8.93
2023-02-23T09:24:12.243Z,9.54
2023-02-23T09:34:14.113Z,9.69
2023-02-23T09:44:24.332Z,10.41
2023-02-23T09:54:32.897Z,10.48
2023-02-23T10:04:59.537Z,9.54
2023-02-23T10:15:19.909Z,10.25
2023-02-23T10:25:26.281Z,10.07
2023-02-23T10:35:30.134Z,10.32
2023-02-23T10:45:40.446Z,10.50
2023-02-23T10:55:45.999Z,10.80
2023-02-23T11:05:53.084Z,10.96
2023-02-23T11:16:04.956Z,11.00
2023-02-23T11:26:23.772Z,11.33
2023-02-23T11:36:29.989Z,11.16
2023-02-23T11:46:35.953Z,10.78
2023-02-23T11:56:38.137Z,10.48
2023-02-23T12:06:42.261Z,10.92
2023-02-23T12:16:51.587Z,10.56
2023-02-23T12:27:13.045Z,10.80
2023-02-23T12:37:38.981Z,10.75
2023-02-23T12:48:06.398Z,10.48
2023-02-23T12:58:25.659Z,10.92
2023-02-23T13:08:42.534Z,10.79
2023-02-23T13:19:02.909Z,11.02
2023-02-23T13:29:39.246Z,11.45
2023-02-23T13:39:48.765Z,12.00
2023-02-23T13:50:23.213Z,12.57
2023-02-23T14:00:24.935Z,12.91
2023-02-23T14:10:45.770Z,12.25
2023-02-23T14:20:58.820Z,11.67
2023-02-23T14:31:20.544Z,11.04
2023-02-23T14:41:59.623Z,11.45
2023-02-23T14:52:08.367Z,12.81
2023-02-23T15:02:16.957Z,14.94
2023-02-23T15:12:28.624Z,12.35
2023-02-23T15:22:37.055Z,11.73
2023-02-23T15:32:38.884Z,10.60
2023-02-23T15:42:48.501Z,10.27
2023-02-23T15:52:56.173Z,9.93
2023-02-23T16:03:04.738Z,9.86
2023-02-23T16:13:07.612Z,9.76
2023-02-23T16:23:35.785Z,9.73
2023-02-23T16:34:00.443Z,9.48
2023-02-23T16:44:06.672Z,9.47
2023-02-23T16:54:11.796Z,9.53
2023-02-23T17:04:21.806Z,9.58
2023-02-23T17:14:30.725Z,9.21
2023-02-23T17:24:43.675Z,9.36
2023-02-23T17:34:46.302Z,9.28
2023-02-23T17:44:50.029Z,9.19
2023-02-23T17:54:55.866Z,9.08
2023-02-23T18:05:03.038Z,8.79
2023-02-23T18:15:09.511Z,8.83
2023-02-23T18:25:28.403Z,8.71
2023-02-23T18:35:36.516Z,8.71
2023-02-23T18:45:47.972Z,8.52
2023-02-23T18:56:06.519Z,8.59
2023-02-23T19:06:14.890Z,8.57
2023-02-23T19:16:20.105Z,8.64
2023-02-23T19:26:28.075Z,8.58
2023-02-23T19:36:37.147Z,8.54
2023-02-23T19:46:43.635Z,8.35
2023-02-23T19:56:47.815Z,7.97
2023-02-23T20:06:52.061Z,7.88
2023-02-23T20:16:57.019Z,7.79
2023-02-23T20:27:08.192Z,7.55
2023-02-23T20:37:15.282Z,7.89
2023-02-23T20:47:20.593Z,7.79
2023-02-23T20:57:23.402Z,7.71
2023-02-23T21:07:27.016Z,7.68
2023-02-23T21:17:29.836Z,7.72
2023-02-23T21:27:32.502Z,7.58
2023-02-23T21:37:43.797Z,7.58
2023-02-23T21:47:50.781Z,7.44
2023-02-23T21:57:58.189Z,7.46
2023-02-23T22:08:02.001Z,7.41
2023-02-23T22:18:04.884Z,7.32
2023-02-23T22:28:09.433Z,7.36
2023-02-23T22:38:14.042Z,7.42
2023-02-23T22:48:15.770Z,7.32
2023-02-23T22:58:20.242Z,7.68
2023-02-23T23:08:22.531Z,7.43
2023-02-23T23:18:24.685Z,7.24
2023-02-23T23:28:40.156Z,7.18
2023-02-23T23:38:43.007Z,7.27
2023-02-23T23:48:49.846Z,7.37
2023-02-23T23:58:58.483Z,7.23
